MMC YPDN-YBAS
Flight info
| Callsign | MMC |
|---|---|
| Flight time | 1h 54m |
| Altitude | 41000 |
| Route | LAKUP J251 AS |
| Aircraft | LJ35/M-L/CB1 |
Departure
| Time | 2026-04-28 05:28 |
|---|---|
| Airport | Darwin International Airport / RAAF Darwin (YPDN) |
Arrival
| Time | 2026-04-28 07:22 |
|---|---|
| Airport | Alice Springs Airport (YBAS) |
| Time | Latitude | Longitude | Altitude | Speed | Heading |
|---|---|---|---|---|---|
| 2026-04-28 05:15 | -12.41065 | 130.88341 | 122 ft | 0 kts | 111° |
| 2026-04-28 05:22 | -12.41065 | 130.88343 | 122 ft | 2 kts | 112° |
| 2026-04-28 05:22 | -12.41091 | 130.88354 | 122 ft | 8 kts | 223° |
| 2026-04-28 05:22 | -12.41146 | 130.88317 | 122 ft | 13 kts | 243° |
| 2026-04-28 05:23 | -12.41117 | 130.88214 | 122 ft | 17 kts | 288° |
| 2026-04-28 05:23 | -12.41121 | 130.88094 | 121 ft | 20 kts | 209° |
| 2026-04-28 05:23 | -12.41260 | 130.88044 | 122 ft | 23 kts | 198° |
| 2026-04-28 05:23 | -12.41422 | 130.87989 | 120 ft | 26 kts | 198° |
| 2026-04-28 05:24 | -12.41583 | 130.87932 | 122 ft | 18 kts | 198° |
| 2026-04-28 05:24 | -12.41657 | 130.87824 | 122 ft | 21 kts | 272° |
| 2026-04-28 05:24 | -12.41608 | 130.87669 | 122 ft | 25 kts | 289° |
| 2026-04-28 05:24 | -12.41549 | 130.87493 | 122 ft | 28 kts | 289° |
| 2026-04-28 05:25 | -12.41483 | 130.87298 | 122 ft | 30 kts | 289° |
| 2026-04-28 05:25 | -12.41412 | 130.87085 | 122 ft | 33 kts | 289° |
| 2026-04-28 05:25 | -12.41334 | 130.86855 | 121 ft | 35 kts | 289° |
| 2026-04-28 05:25 | -12.41254 | 130.86618 | 120 ft | 32 kts | 289° |
| 2026-04-28 05:26 | -12.41136 | 130.86477 | 120 ft | 24 kts | 359° |
| 2026-04-28 05:26 | -12.41057 | 130.86496 | 123 ft | 0 kts | 18° |
| 2026-04-28 05:27 | -12.41025 | 130.86508 | 124 ft | 12 kts | 19° |
| 2026-04-28 05:27 | -12.40954 | 130.86578 | 124 ft | 16 kts | 106° |
| 2026-04-28 05:27 | -12.41006 | 130.86729 | 123 ft | 40 kts | 109° |
| 2026-04-28 05:28 | -12.41212 | 130.87342 | 123 ft | 142 kts | 109° |
| 2026-04-28 05:28 | -12.41583 | 130.88511 | 831 ft | 190 kts | 106° |
| 2026-04-28 05:28 | -12.41936 | 130.89937 | 1860 ft | 229 kts | 105° |
| 2026-04-28 05:28 | -12.42446 | 130.91543 | 2970 ft | 233 kts | 110° |
| 2026-04-28 05:29 | -12.43309 | 130.92968 | 3186 ft | 245 kts | 135° |
| 2026-04-28 05:29 | -12.44786 | 130.93920 | 3139 ft | 259 kts | 153° |
| 2026-04-28 05:29 | -12.46467 | 130.94675 | 3070 ft | 268 kts | 155° |
| 2026-04-28 05:29 | -12.48202 | 130.95448 | 3010 ft | 274 kts | 150° |
| 2026-04-28 05:30 | -12.49767 | 130.96533 | 3006 ft | 268 kts | 141° |
| 2026-04-28 05:30 | -12.51201 | 130.97699 | 3006 ft | 259 kts | 139° |
| 2026-04-28 05:30 | -12.52594 | 130.98838 | 2995 ft | 252 kts | 142° |
| 2026-04-28 05:30 | -12.54148 | 130.99638 | 2982 ft | 247 kts | 156° |
| 2026-04-28 05:31 | -12.55688 | 131.00312 | 2981 ft | 242 kts | 151° |
| 2026-04-28 05:31 | -12.57127 | 131.01161 | 2982 ft | 235 kts | 145° |
| 2026-04-28 05:31 | -12.58498 | 131.02070 | 2978 ft | 235 kts | 146° |
| 2026-04-28 05:31 | -12.59888 | 131.02953 | 2975 ft | 236 kts | 147° |
| 2026-04-28 05:32 | -12.61305 | 131.03830 | 2973 ft | 239 kts | 147° |
| 2026-04-28 05:32 | -12.62727 | 131.04728 | 2975 ft | 241 kts | 143° |
| 2026-04-28 05:32 | -12.64116 | 131.05711 | 2973 ft | 244 kts | 144° |
| 2026-04-28 05:32 | -12.65528 | 131.06683 | 2974 ft | 245 kts | 144° |
| 2026-04-28 05:33 | -12.66936 | 131.07650 | 3075 ft | 242 kts | 144° |
| 2026-04-28 05:33 | -12.68370 | 131.08648 | 4070 ft | 247 kts | 144° |
| 2026-04-28 05:33 | -12.69802 | 131.09644 | 5356 ft | 252 kts | 147° |
| 2026-04-28 05:33 | -12.71297 | 131.10678 | 6276 ft | 269 kts | 149° |
| 2026-04-28 05:34 | -12.72885 | 131.11774 | 7216 ft | 278 kts | 148° |
| 2026-04-28 05:34 | -12.74485 | 131.12887 | 8401 ft | 276 kts | 147° |
| 2026-04-28 05:34 | -12.76088 | 131.14002 | 9478 ft | 282 kts | 147° |
| 2026-04-28 05:34 | -12.77725 | 131.15138 | 10433 ft | 286 kts | 147° |
| 2026-04-28 05:35 | -12.79372 | 131.16279 | 11398 ft | 288 kts | 148° |
| 2026-04-28 05:35 | -12.81046 | 131.17440 | 12278 ft | 293 kts | 147° |
| 2026-04-28 05:35 | -12.82732 | 131.18613 | 13118 ft | 299 kts | 147° |
| 2026-04-28 05:35 | -12.84467 | 131.19818 | 13987 ft | 303 kts | 147° |
| 2026-04-28 05:36 | -12.86241 | 131.21051 | 14836 ft | 305 kts | 148° |
| 2026-04-28 05:36 | -12.87984 | 131.22260 | 15663 ft | 308 kts | 148° |
| 2026-04-28 05:36 | -12.89759 | 131.23493 | 16481 ft | 310 kts | 147° |
| 2026-04-28 05:36 | -12.91551 | 131.24740 | 17311 ft | 312 kts | 147° |
| 2026-04-28 05:37 | -12.93359 | 131.25997 | 18131 ft | 315 kts | 147° |
| 2026-04-28 05:37 | -12.95183 | 131.27265 | 18816 ft | 319 kts | 148° |
| 2026-04-28 05:37 | -12.97038 | 131.28554 | 19445 ft | 324 kts | 147° |
| 2026-04-28 05:37 | -12.98912 | 131.29857 | 20072 ft | 329 kts | 147° |
| 2026-04-28 05:38 | -13.00815 | 131.31181 | 20726 ft | 332 kts | 147° |
| 2026-04-28 05:38 | -13.02751 | 131.32527 | 21330 ft | 338 kts | 147° |
| 2026-04-28 05:38 | -13.04707 | 131.33889 | 21966 ft | 342 kts | 148° |
| 2026-04-28 05:38 | -13.06691 | 131.35269 | 22575 ft | 348 kts | 148° |
| 2026-04-28 05:39 | -13.08712 | 131.36675 | 23128 ft | 354 kts | 147° |
| 2026-04-28 05:39 | -13.10764 | 131.38105 | 23672 ft | 359 kts | 147° |
| 2026-04-28 05:39 | -13.12838 | 131.39550 | 24223 ft | 361 kts | 147° |
| 2026-04-28 05:39 | -13.14927 | 131.41003 | 24774 ft | 364 kts | 148° |
| 2026-04-28 05:40 | -13.17030 | 131.42468 | 25302 ft | 368 kts | 147° |
| 2026-04-28 05:40 | -13.19147 | 131.43944 | 25846 ft | 370 kts | 148° |
| 2026-04-28 05:40 | -13.21293 | 131.45439 | 26385 ft | 374 kts | 148° |
| 2026-04-28 05:40 | -13.23457 | 131.46947 | 26936 ft | 376 kts | 148° |
| 2026-04-28 05:41 | -13.25631 | 131.48461 | 27466 ft | 380 kts | 148° |
| 2026-04-28 05:41 | -13.27826 | 131.49992 | 28016 ft | 383 kts | 148° |
| 2026-04-28 05:41 | -13.30036 | 131.51532 | 28588 ft | 386 kts | 148° |
| 2026-04-28 05:41 | -13.32275 | 131.53094 | 29154 ft | 390 kts | 148° |
| 2026-04-28 05:42 | -13.34523 | 131.54663 | 29707 ft | 393 kts | 148° |
| 2026-04-28 05:42 | -13.36795 | 131.56248 | 30202 ft | 397 kts | 148° |
| 2026-04-28 05:42 | -13.39091 | 131.57850 | 30650 ft | 400 kts | 148° |
| 2026-04-28 05:42 | -13.41402 | 131.59465 | 31076 ft | 404 kts | 148° |
| 2026-04-28 05:43 | -13.43736 | 131.61095 | 31484 ft | 407 kts | 148° |
| 2026-04-28 05:43 | -13.46087 | 131.62737 | 31897 ft | 411 kts | 149° |
| 2026-04-28 05:43 | -13.48437 | 131.64379 | 32286 ft | 415 kts | 149° |
| 2026-04-28 05:43 | -13.50833 | 131.66053 | 32678 ft | 418 kts | 149° |
| 2026-04-28 05:44 | -13.53247 | 131.67742 | 33059 ft | 422 kts | 149° |
| 2026-04-28 05:44 | -13.55683 | 131.69446 | 33438 ft | 425 kts | 149° |
| 2026-04-28 05:44 | -13.58138 | 131.71162 | 33805 ft | 429 kts | 149° |
| 2026-04-28 05:44 | -13.60613 | 131.72893 | 34135 ft | 432 kts | 149° |
| 2026-04-28 05:45 | -13.63105 | 131.74637 | 34468 ft | 434 kts | 149° |
| 2026-04-28 05:45 | -13.65611 | 131.76393 | 34800 ft | 437 kts | 149° |
| 2026-04-28 05:45 | -13.68127 | 131.78155 | 35138 ft | 439 kts | 149° |
| 2026-04-28 05:45 | -13.70652 | 131.79924 | 35485 ft | 441 kts | 149° |
| 2026-04-28 05:46 | -13.73198 | 131.81706 | 35840 ft | 442 kts | 149° |
| 2026-04-28 05:46 | -13.75735 | 131.83483 | 36319 ft | 442 kts | 149° |
| 2026-04-28 05:46 | -13.78270 | 131.85258 | 36877 ft | 440 kts | 148° |
| 2026-04-28 05:46 | -13.80800 | 131.87033 | 37414 ft | 439 kts | 148° |
| 2026-04-28 05:47 | -13.83322 | 131.88802 | 37932 ft | 439 kts | 148° |
| 2026-04-28 05:47 | -13.85840 | 131.90569 | 38438 ft | 438 kts | 148° |
| 2026-04-28 05:47 | -13.88362 | 131.92339 | 38879 ft | 437 kts | 148° |
| 2026-04-28 05:47 | -13.90874 | 131.94101 | 39303 ft | 436 kts | 148° |
| 2026-04-28 05:48 | -13.93375 | 131.95859 | 39736 ft | 435 kts | 148° |
| 2026-04-28 05:48 | -13.95876 | 131.97614 | 40144 ft | 434 kts | 149° |
| 2026-04-28 05:48 | -13.98371 | 131.99365 | 40551 ft | 434 kts | 148° |
| 2026-04-28 05:48 | -14.00861 | 132.01117 | 40905 ft | 434 kts | 149° |
| 2026-04-28 05:49 | -14.05922 | 132.04673 | 40910 ft | 449 kts | 148° |
| 2026-04-28 05:49 | -14.11131 | 132.08341 | 40927 ft | 457 kts | 148° |
| 2026-04-28 05:50 | -14.16417 | 132.12060 | 40927 ft | 462 kts | 148° |
| 2026-04-28 05:50 | -14.21742 | 132.15811 | 40930 ft | 465 kts | 148° |
| 2026-04-28 05:51 | -14.27091 | 132.19579 | 40935 ft | 466 kts | 148° |
| 2026-04-28 05:51 | -14.32446 | 132.23355 | 40950 ft | 466 kts | 148° |
| 2026-04-28 05:52 | -14.37805 | 132.27134 | 40956 ft | 467 kts | 148° |
| 2026-04-28 05:52 | -14.43162 | 132.30916 | 40963 ft | 466 kts | 149° |
| 2026-04-28 05:53 | -14.48519 | 132.34693 | 40966 ft | 466 kts | 149° |
| 2026-04-28 05:53 | -14.51340 | 132.36288 | 40948 ft | 461 kts | 160° |
| 2026-04-28 05:53 | -14.54314 | 132.37361 | 40953 ft | 456 kts | 169° |
| 2026-04-28 05:54 | -14.60538 | 132.38416 | 40959 ft | 453 kts | 175° |
| 2026-04-28 05:54 | -14.66772 | 132.39393 | 40963 ft | 453 kts | 175° |
| 2026-04-28 05:55 | -14.72997 | 132.40341 | 40958 ft | 452 kts | 175° |
| 2026-04-28 05:55 | -14.79223 | 132.41305 | 40943 ft | 452 kts | 175° |
| 2026-04-28 05:56 | -14.85459 | 132.42264 | 40938 ft | 452 kts | 175° |
| 2026-04-28 05:56 | -14.91678 | 132.43224 | 40939 ft | 451 kts | 175° |
| 2026-04-28 05:57 | -14.97888 | 132.44181 | 40940 ft | 451 kts | 175° |
| 2026-04-28 05:57 | -15.04093 | 132.45139 | 40943 ft | 451 kts | 175° |
| 2026-04-28 05:58 | -15.10297 | 132.46097 | 40946 ft | 451 kts | 175° |
| 2026-04-28 05:58 | -15.16459 | 132.47051 | 40946 ft | 450 kts | 175° |
| 2026-04-28 05:59 | -15.22654 | 132.48008 | 40947 ft | 450 kts | 175° |
| 2026-04-28 05:59 | -15.28843 | 132.48966 | 40949 ft | 450 kts | 175° |
| 2026-04-28 06:00 | -15.35027 | 132.49923 | 40948 ft | 449 kts | 175° |
| 2026-04-28 06:00 | -15.41214 | 132.50882 | 40958 ft | 449 kts | 175° |
| 2026-04-28 06:01 | -15.47403 | 132.51841 | 40951 ft | 449 kts | 175° |
| 2026-04-28 06:01 | -15.53581 | 132.52799 | 40951 ft | 449 kts | 175° |
| 2026-04-28 06:02 | -15.59768 | 132.53760 | 40954 ft | 449 kts | 175° |
| 2026-04-28 06:02 | -15.65948 | 132.54720 | 40956 ft | 449 kts | 175° |
| 2026-04-28 06:03 | -15.72125 | 132.55679 | 40959 ft | 448 kts | 175° |
| 2026-04-28 06:03 | -15.78297 | 132.56639 | 40959 ft | 448 kts | 175° |
| 2026-04-28 06:04 | -15.84468 | 132.57600 | 40956 ft | 448 kts | 175° |
| 2026-04-28 06:04 | -15.90643 | 132.58561 | 40960 ft | 448 kts | 176° |
| 2026-04-28 06:05 | -15.96766 | 132.59515 | 40961 ft | 448 kts | 176° |
| 2026-04-28 06:05 | -16.02929 | 132.60475 | 40964 ft | 447 kts | 176° |
| 2026-04-28 06:06 | -16.09086 | 132.61435 | 40968 ft | 447 kts | 176° |
| 2026-04-28 06:06 | -16.15239 | 132.62396 | 40968 ft | 447 kts | 176° |
| 2026-04-28 06:07 | -16.21387 | 132.63356 | 40967 ft | 447 kts | 176° |
| 2026-04-28 06:07 | -16.27536 | 132.64318 | 40967 ft | 447 kts | 176° |
| 2026-04-28 06:08 | -16.33682 | 132.65279 | 40967 ft | 447 kts | 176° |
| 2026-04-28 06:08 | -16.38796 | 132.66079 | 40973 ft | 447 kts | 176° |
| 2026-04-28 06:09 | -16.45941 | 132.67199 | 40968 ft | 446 kts | 176° |
| 2026-04-28 06:09 | -16.52073 | 132.68159 | 40972 ft | 446 kts | 176° |
| 2026-04-28 06:10 | -16.57210 | 132.68965 | 40968 ft | 446 kts | 176° |
| 2026-04-28 06:10 | -16.63349 | 132.69928 | 40973 ft | 446 kts | 176° |
| 2026-04-28 06:11 | -16.69472 | 132.70889 | 40976 ft | 445 kts | 176° |
| 2026-04-28 06:11 | -16.75605 | 132.71853 | 40976 ft | 445 kts | 176° |
| 2026-04-28 06:12 | -16.81722 | 132.72815 | 40978 ft | 445 kts | 176° |
| 2026-04-28 06:12 | -16.87812 | 132.73773 | 40978 ft | 445 kts | 176° |
| 2026-04-28 06:13 | -16.93931 | 132.74736 | 40978 ft | 444 kts | 176° |
| 2026-04-28 06:13 | -17.00046 | 132.75699 | 40981 ft | 444 kts | 176° |
| 2026-04-28 06:14 | -17.06157 | 132.76664 | 40979 ft | 444 kts | 176° |
| 2026-04-28 06:14 | -17.12259 | 132.77631 | 40979 ft | 444 kts | 176° |
| 2026-04-28 06:15 | -17.18369 | 132.78597 | 40982 ft | 443 kts | 176° |
| 2026-04-28 06:15 | -17.24458 | 132.79563 | 40980 ft | 443 kts | 176° |
| 2026-04-28 06:16 | -17.30551 | 132.80529 | 40974 ft | 443 kts | 176° |
| 2026-04-28 06:16 | -17.36651 | 132.81496 | 40979 ft | 443 kts | 176° |
| 2026-04-28 06:17 | -17.42737 | 132.82463 | 40981 ft | 442 kts | 176° |
| 2026-04-28 06:18 | -17.51856 | 132.83911 | 40986 ft | 442 kts | 176° |
| 2026-04-28 06:18 | -17.57932 | 132.84877 | 40983 ft | 441 kts | 176° |
| 2026-04-28 06:19 | -17.63966 | 132.85838 | 40984 ft | 441 kts | 176° |
| 2026-04-28 06:19 | -17.70036 | 132.86804 | 40985 ft | 441 kts | 176° |
| 2026-04-28 06:20 | -17.76098 | 132.87770 | 40987 ft | 441 kts | 176° |
| 2026-04-28 06:20 | -17.82169 | 132.88738 | 40989 ft | 441 kts | 176° |
| 2026-04-28 06:21 | -17.88231 | 132.89706 | 40984 ft | 441 kts | 176° |
| 2026-04-28 06:21 | -17.94293 | 132.90673 | 40987 ft | 440 kts | 177° |
| 2026-04-28 06:22 | -18.00358 | 132.91642 | 40987 ft | 440 kts | 177° |
| 2026-04-28 06:22 | -18.06371 | 132.92604 | 40989 ft | 440 kts | 177° |
| 2026-04-28 06:23 | -18.12426 | 132.93574 | 40986 ft | 440 kts | 177° |
| 2026-04-28 06:23 | -18.18483 | 132.94542 | 40987 ft | 440 kts | 177° |
| 2026-04-28 06:24 | -18.24539 | 132.95513 | 40985 ft | 440 kts | 177° |
| 2026-04-28 06:24 | -18.30585 | 132.96483 | 40988 ft | 440 kts | 177° |
| 2026-04-28 06:25 | -18.36638 | 132.97454 | 40990 ft | 440 kts | 177° |
| 2026-04-28 06:25 | -18.42701 | 132.98428 | 40992 ft | 440 kts | 177° |
| 2026-04-28 06:26 | -18.48757 | 132.99401 | 40994 ft | 440 kts | 177° |
| 2026-04-28 06:26 | -18.54772 | 133.00369 | 40995 ft | 440 kts | 177° |
| 2026-04-28 06:27 | -18.60863 | 133.01349 | 40993 ft | 440 kts | 177° |
| 2026-04-28 06:27 | -18.66879 | 133.02318 | 40999 ft | 440 kts | 177° |
| 2026-04-28 06:28 | -18.72928 | 133.03293 | 40994 ft | 439 kts | 177° |
| 2026-04-28 06:28 | -18.78968 | 133.04267 | 40994 ft | 439 kts | 177° |
| 2026-04-28 06:29 | -18.85001 | 133.05241 | 40995 ft | 439 kts | 177° |
| 2026-04-28 06:29 | -18.91042 | 133.06216 | 40995 ft | 439 kts | 177° |
| 2026-04-28 06:30 | -18.97086 | 133.07193 | 40995 ft | 439 kts | 177° |
| 2026-04-28 06:30 | -19.03119 | 133.08169 | 40995 ft | 439 kts | 177° |
| 2026-04-28 06:31 | -19.09157 | 133.09146 | 41001 ft | 439 kts | 177° |
| 2026-04-28 06:31 | -19.15198 | 133.10125 | 40998 ft | 439 kts | 177° |
| 2026-04-28 06:32 | -19.21235 | 133.11103 | 41005 ft | 439 kts | 177° |
| 2026-04-28 06:32 | -19.27277 | 133.12084 | 41009 ft | 439 kts | 177° |
| 2026-04-28 06:33 | -19.33277 | 133.13058 | 41006 ft | 439 kts | 177° |
| 2026-04-28 06:33 | -19.39317 | 133.14038 | 41004 ft | 439 kts | 177° |
| 2026-04-28 06:34 | -19.45325 | 133.15022 | 40869 ft | 434 kts | 177° |
| 2026-04-28 06:34 | -19.48304 | 133.15505 | 40767 ft | 432 kts | 177° |
| 2026-04-28 06:34 | -19.51279 | 133.15985 | 40534 ft | 434 kts | 177° |
| 2026-04-28 06:34 | -19.54291 | 133.16472 | 39972 ft | 442 kts | 177° |
| 2026-04-28 06:35 | -19.57348 | 133.16970 | 39377 ft | 447 kts | 176° |
| 2026-04-28 06:35 | -19.60415 | 133.17475 | 38795 ft | 444 kts | 176° |
| 2026-04-28 06:35 | -19.63464 | 133.17976 | 38136 ft | 443 kts | 176° |
| 2026-04-28 06:35 | -19.66506 | 133.18469 | 37462 ft | 442 kts | 177° |
| 2026-04-28 06:36 | -19.69549 | 133.18962 | 36808 ft | 442 kts | 176° |
| 2026-04-28 06:36 | -19.72592 | 133.19459 | 36178 ft | 443 kts | 176° |
| 2026-04-28 06:36 | -19.75643 | 133.19959 | 35560 ft | 443 kts | 176° |
| 2026-04-28 06:36 | -19.78688 | 133.20455 | 34969 ft | 444 kts | 177° |
| 2026-04-28 06:37 | -19.81749 | 133.20951 | 34387 ft | 446 kts | 177° |
| 2026-04-28 06:37 | -19.84830 | 133.21455 | 33783 ft | 448 kts | 177° |
| 2026-04-28 06:37 | -19.87916 | 133.21960 | 33132 ft | 450 kts | 176° |
| 2026-04-28 06:37 | -19.91010 | 133.22467 | 32494 ft | 450 kts | 176° |
| 2026-04-28 06:38 | -19.94102 | 133.22973 | 31902 ft | 450 kts | 176° |
| 2026-04-28 06:38 | -19.97199 | 133.23480 | 31320 ft | 449 kts | 176° |
| 2026-04-28 06:38 | -20.00285 | 133.23985 | 30749 ft | 448 kts | 175° |
| 2026-04-28 06:38 | -20.03368 | 133.24490 | 30197 ft | 448 kts | 175° |
| 2026-04-28 06:39 | -20.06447 | 133.24995 | 29566 ft | 447 kts | 175° |
| 2026-04-28 06:39 | -20.09520 | 133.25499 | 28919 ft | 446 kts | 175° |
| 2026-04-28 06:39 | -20.12579 | 133.26000 | 28288 ft | 445 kts | 175° |
| 2026-04-28 06:39 | -20.15596 | 133.26496 | 27679 ft | 444 kts | 175° |
| 2026-04-28 06:40 | -20.18646 | 133.26996 | 27071 ft | 443 kts | 174° |
| 2026-04-28 06:40 | -20.21697 | 133.27498 | 26500 ft | 445 kts | 174° |
| 2026-04-28 06:40 | -20.24803 | 133.28008 | 25971 ft | 458 kts | 174° |
| 2026-04-28 06:40 | -20.27987 | 133.28531 | 25451 ft | 468 kts | 174° |
| 2026-04-28 06:41 | -20.31228 | 133.29066 | 24946 ft | 474 kts | 174° |
| 2026-04-28 06:41 | -20.34507 | 133.29608 | 24402 ft | 479 kts | 173° |
| 2026-04-28 06:41 | -20.37827 | 133.30153 | 23800 ft | 483 kts | 173° |
| 2026-04-28 06:41 | -20.41157 | 133.30701 | 23131 ft | 486 kts | 173° |
| 2026-04-28 06:42 | -20.44502 | 133.31252 | 22435 ft | 485 kts | 173° |
| 2026-04-28 06:42 | -20.47812 | 133.31794 | 21748 ft | 478 kts | 173° |
| 2026-04-28 06:42 | -20.51077 | 133.32331 | 21073 ft | 473 kts | 173° |
| 2026-04-28 06:42 | -20.54317 | 133.32871 | 20415 ft | 468 kts | 172° |
| 2026-04-28 06:43 | -20.57504 | 133.33399 | 19772 ft | 459 kts | 172° |
| 2026-04-28 06:43 | -20.60635 | 133.33912 | 19137 ft | 451 kts | 172° |
| 2026-04-28 06:43 | -20.63718 | 133.34419 | 18509 ft | 445 kts | 172° |
| 2026-04-28 06:43 | -20.66725 | 133.34917 | 17843 ft | 441 kts | 172° |
| 2026-04-28 06:44 | -20.69736 | 133.35416 | 17140 ft | 436 kts | 171° |
| 2026-04-28 06:44 | -20.72726 | 133.35910 | 16455 ft | 433 kts | 171° |
| 2026-04-28 06:44 | -20.75693 | 133.36400 | 15792 ft | 429 kts | 171° |
| 2026-04-28 06:44 | -20.78615 | 133.36885 | 15159 ft | 422 kts | 171° |
| 2026-04-28 06:45 | -20.81495 | 133.37361 | 14540 ft | 416 kts | 171° |
| 2026-04-28 06:45 | -20.84343 | 133.37832 | 13930 ft | 412 kts | 170° |
| 2026-04-28 06:45 | -20.87173 | 133.38307 | 13255 ft | 410 kts | 170° |
| 2026-04-28 06:45 | -20.89983 | 133.38775 | 12582 ft | 407 kts | 170° |
| 2026-04-28 06:46 | -20.92772 | 133.39233 | 11923 ft | 405 kts | 170° |
| 2026-04-28 06:46 | -20.95488 | 133.39678 | 11293 ft | 378 kts | 169° |
| 2026-04-28 06:46 | -20.97951 | 133.40079 | 11048 ft | 336 kts | 169° |
| 2026-04-28 06:46 | -21.00122 | 133.40438 | 11033 ft | 297 kts | 169° |
| 2026-04-28 06:47 | -21.02054 | 133.40760 | 11031 ft | 266 kts | 168° |
| 2026-04-28 06:47 | -21.03832 | 133.41059 | 10864 ft | 255 kts | 168° |
| 2026-04-28 06:47 | -21.05591 | 133.41355 | 10533 ft | 259 kts | 168° |
| 2026-04-28 06:47 | -21.07387 | 133.41654 | 10192 ft | 264 kts | 168° |
| 2026-04-28 06:48 | -21.09217 | 133.41957 | 9859 ft | 267 kts | 168° |
| 2026-04-28 06:48 | -21.11062 | 133.42265 | 9496 ft | 270 kts | 168° |
| 2026-04-28 06:48 | -21.12923 | 133.42574 | 9139 ft | 272 kts | 168° |
| 2026-04-28 06:48 | -21.14796 | 133.42885 | 8788 ft | 273 kts | 168° |
| 2026-04-28 06:49 | -21.16678 | 133.43201 | 8442 ft | 274 kts | 168° |
| 2026-04-28 06:49 | -21.18547 | 133.43512 | 8098 ft | 275 kts | 168° |
| 2026-04-28 06:49 | -21.20445 | 133.43827 | 7760 ft | 276 kts | 168° |
| 2026-04-28 06:49 | -21.22342 | 133.44144 | 7423 ft | 276 kts | 168° |
| 2026-04-28 06:50 | -21.24238 | 133.44457 | 7090 ft | 275 kts | 168° |
| 2026-04-28 06:50 | -21.26128 | 133.44772 | 6759 ft | 275 kts | 168° |
| 2026-04-28 06:50 | -21.28018 | 133.45087 | 6431 ft | 275 kts | 168° |
| 2026-04-28 06:50 | -21.29906 | 133.45402 | 6086 ft | 274 kts | 168° |
| 2026-04-28 06:51 | -21.31792 | 133.45716 | 5747 ft | 274 kts | 168° |
| 2026-04-28 06:51 | -21.33674 | 133.46029 | 5395 ft | 273 kts | 168° |
| 2026-04-28 06:51 | -21.35544 | 133.46346 | 5242 ft | 269 kts | 168° |
| 2026-04-28 06:51 | -21.37399 | 133.46674 | 5486 ft | 272 kts | 167° |
| 2026-04-28 06:52 | -21.39296 | 133.47022 | 5549 ft | 282 kts | 167° |
| 2026-04-28 06:52 | -21.41259 | 133.47395 | 5555 ft | 291 kts | 167° |
| 2026-04-28 06:52 | -21.43275 | 133.47790 | 5563 ft | 298 kts | 166° |
| 2026-04-28 06:52 | -21.45332 | 133.48208 | 5572 ft | 303 kts | 166° |
| 2026-04-28 06:53 | -21.47417 | 133.48643 | 5568 ft | 307 kts | 166° |
| 2026-04-28 06:53 | -21.49528 | 133.49095 | 5566 ft | 310 kts | 166° |
| 2026-04-28 06:53 | -21.51650 | 133.49561 | 5568 ft | 312 kts | 166° |
| 2026-04-28 06:53 | -21.53783 | 133.50041 | 5572 ft | 314 kts | 165° |
| 2026-04-28 06:54 | -21.55921 | 133.50535 | 5713 ft | 311 kts | 165° |
| 2026-04-28 06:54 | -21.57959 | 133.51011 | 6667 ft | 300 kts | 165° |
| 2026-04-28 06:54 | -21.59939 | 133.51483 | 8315 ft | 292 kts | 165° |
| 2026-04-28 06:54 | -21.61890 | 133.51958 | 10120 ft | 283 kts | 165° |
| 2026-04-28 06:55 | -21.63769 | 133.52421 | 11796 ft | 271 kts | 165° |
| 2026-04-28 06:55 | -21.65632 | 133.52890 | 12965 ft | 288 kts | 165° |
| 2026-04-28 06:55 | -21.67730 | 133.53436 | 13059 ft | 334 kts | 165° |
| 2026-04-28 06:55 | -21.70127 | 133.54080 | 13076 ft | 373 kts | 165° |
| 2026-04-28 06:56 | -21.72744 | 133.54805 | 13078 ft | 404 kts | 164° |
| 2026-04-28 06:56 | -21.75573 | 133.55454 | 13076 ft | 427 kts | 169° |
| 2026-04-28 06:56 | -21.78529 | 133.55856 | 13076 ft | 429 kts | 173° |
| 2026-04-28 06:56 | -21.81502 | 133.56158 | 13078 ft | 429 kts | 173° |
| 2026-04-28 06:57 | -21.84455 | 133.56550 | 13077 ft | 422 kts | 170° |
| 2026-04-28 06:57 | -21.87300 | 133.57080 | 13076 ft | 411 kts | 168° |
| 2026-04-28 06:57 | -21.90097 | 133.57570 | 13079 ft | 403 kts | 170° |
| 2026-04-28 06:57 | -21.92863 | 133.57969 | 13079 ft | 398 kts | 171° |
| 2026-04-28 06:58 | -21.94671 | 133.58228 | 13078 ft | 395 kts | 171° |
| 2026-04-28 06:58 | -21.97407 | 133.58367 | 13060 ft | 394 kts | 180° |
| 2026-04-28 06:58 | -22.01058 | 133.58110 | 13067 ft | 391 kts | 182° |
| 2026-04-28 06:58 | -22.02852 | 133.58000 | 13068 ft | 390 kts | 181° |
| 2026-04-28 06:59 | -22.05564 | 133.57993 | 13066 ft | 388 kts | 175° |
| 2026-04-28 06:59 | -22.08235 | 133.58356 | 13067 ft | 386 kts | 168° |
| 2026-04-28 06:59 | -22.10856 | 133.58985 | 13068 ft | 384 kts | 162° |
| 2026-04-28 06:59 | -22.13343 | 133.60029 | 13069 ft | 383 kts | 154° |
| 2026-04-28 07:00 | -22.15746 | 133.61266 | 13061 ft | 384 kts | 159° |
| 2026-04-28 07:00 | -22.18427 | 133.61805 | 13072 ft | 402 kts | 175° |
| 2026-04-28 07:00 | -22.21288 | 133.61809 | 13077 ft | 413 kts | 180° |
| 2026-04-28 07:00 | -22.24146 | 133.61715 | 13085 ft | 409 kts | 180° |
| 2026-04-28 07:01 | -22.26949 | 133.61712 | 13090 ft | 406 kts | 176° |
| 2026-04-28 07:01 | -22.29745 | 133.61998 | 13091 ft | 403 kts | 169° |
| 2026-04-28 07:01 | -22.32500 | 133.62581 | 13090 ft | 402 kts | 166° |
| 2026-04-28 07:01 | -22.35250 | 133.63215 | 13092 ft | 408 kts | 168° |
| 2026-04-28 07:02 | -22.38073 | 133.63683 | 13089 ft | 413 kts | 171° |
| 2026-04-28 07:02 | -22.40933 | 133.64071 | 13092 ft | 415 kts | 171° |
| 2026-04-28 07:02 | -22.43793 | 133.64552 | 13089 ft | 417 kts | 169° |
| 2026-04-28 07:02 | -22.46652 | 133.65092 | 13094 ft | 416 kts | 169° |
| 2026-04-28 07:03 | -22.49510 | 133.65584 | 13098 ft | 415 kts | 170° |
| 2026-04-28 07:03 | -22.52361 | 133.66040 | 13099 ft | 412 kts | 170° |
| 2026-04-28 07:03 | -22.55184 | 133.66514 | 13098 ft | 410 kts | 169° |
| 2026-04-28 07:03 | -22.57993 | 133.67005 | 13097 ft | 408 kts | 169° |
| 2026-04-28 07:04 | -22.60793 | 133.67484 | 13093 ft | 407 kts | 170° |
| 2026-04-28 07:04 | -22.63589 | 133.67955 | 13094 ft | 406 kts | 170° |
| 2026-04-28 07:04 | -22.66377 | 133.68428 | 13092 ft | 406 kts | 170° |
| 2026-04-28 07:04 | -22.69168 | 133.68906 | 13090 ft | 405 kts | 170° |
| 2026-04-28 07:05 | -22.71948 | 133.69381 | 13093 ft | 405 kts | 170° |
| 2026-04-28 07:05 | -22.74734 | 133.69855 | 13091 ft | 405 kts | 170° |
| 2026-04-28 07:05 | -22.77513 | 133.70328 | 13090 ft | 405 kts | 170° |
| 2026-04-28 07:05 | -22.80299 | 133.70804 | 13093 ft | 405 kts | 170° |
| 2026-04-28 07:06 | -22.83082 | 133.71279 | 13092 ft | 405 kts | 170° |
| 2026-04-28 07:06 | -22.85865 | 133.71756 | 13092 ft | 405 kts | 170° |
| 2026-04-28 07:06 | -22.88642 | 133.72229 | 13092 ft | 405 kts | 170° |
| 2026-04-28 07:06 | -22.91430 | 133.72705 | 13091 ft | 405 kts | 170° |
| 2026-04-28 07:07 | -22.94212 | 133.73182 | 13091 ft | 405 kts | 170° |
| 2026-04-28 07:07 | -22.96997 | 133.73658 | 13090 ft | 405 kts | 170° |
| 2026-04-28 07:07 | -22.99784 | 133.74136 | 13095 ft | 405 kts | 170° |
| 2026-04-28 07:07 | -23.02569 | 133.74612 | 13095 ft | 405 kts | 170° |
| 2026-04-28 07:08 | -23.05359 | 133.75090 | 13095 ft | 405 kts | 170° |
| 2026-04-28 07:08 | -23.08063 | 133.75553 | 13100 ft | 405 kts | 170° |
| 2026-04-28 07:08 | -23.10862 | 133.76034 | 13100 ft | 405 kts | 170° |
| 2026-04-28 07:08 | -23.13643 | 133.76511 | 13100 ft | 405 kts | 170° |
| 2026-04-28 07:09 | -23.16428 | 133.76989 | 13103 ft | 405 kts | 170° |
| 2026-04-28 07:09 | -23.19214 | 133.77467 | 13103 ft | 405 kts | 170° |
| 2026-04-28 07:09 | -23.22004 | 133.77946 | 13103 ft | 405 kts | 170° |
| 2026-04-28 07:09 | -23.24790 | 133.78424 | 13105 ft | 405 kts | 170° |
| 2026-04-28 07:10 | -23.27573 | 133.78904 | 13102 ft | 405 kts | 169° |
| 2026-04-28 07:10 | -23.30359 | 133.79387 | 13103 ft | 405 kts | 169° |
| 2026-04-28 07:10 | -23.33086 | 133.79852 | 12955 ft | 381 kts | 170° |
| 2026-04-28 07:10 | -23.35559 | 133.80262 | 12637 ft | 341 kts | 170° |
| 2026-04-28 07:11 | -23.37804 | 133.80647 | 12225 ft | 313 kts | 169° |
| 2026-04-28 07:11 | -23.39866 | 133.81061 | 11813 ft | 292 kts | 168° |
| 2026-04-28 07:11 | -23.41728 | 133.81715 | 11395 ft | 274 kts | 153° |
| 2026-04-28 07:11 | -23.43392 | 133.82656 | 10991 ft | 267 kts | 152° |
| 2026-04-28 07:12 | -23.45087 | 133.83478 | 10587 ft | 267 kts | 158° |
| 2026-04-28 07:12 | -23.46849 | 133.84110 | 10187 ft | 266 kts | 161° |
| 2026-04-28 07:12 | -23.48678 | 133.84462 | 9758 ft | 268 kts | 175° |
| 2026-04-28 07:12 | -23.50537 | 133.84267 | 9314 ft | 271 kts | 190° |
| 2026-04-28 07:13 | -23.52287 | 133.83548 | 8879 ft | 274 kts | 205° |
| 2026-04-28 07:13 | -23.53834 | 133.82321 | 8468 ft | 278 kts | 220° |
| 2026-04-28 07:13 | -23.55035 | 133.80657 | 8064 ft | 282 kts | 237° |
| 2026-04-28 07:13 | -23.55796 | 133.78694 | 7717 ft | 279 kts | 249° |
| 2026-04-28 07:14 | -23.56491 | 133.76760 | 7383 ft | 269 kts | 243° |
| 2026-04-28 07:14 | -23.57288 | 133.74973 | 7174 ft | 254 kts | 238° |
| 2026-04-28 07:14 | -23.58145 | 133.73355 | 6968 ft | 238 kts | 234° |
| 2026-04-28 07:14 | -23.59039 | 133.71897 | 6767 ft | 226 kts | 231° |
| 2026-04-28 07:15 | -23.59976 | 133.70562 | 6562 ft | 218 kts | 226° |
| 2026-04-28 07:15 | -23.60952 | 133.69336 | 6339 ft | 210 kts | 223° |
| 2026-04-28 07:15 | -23.61946 | 133.68223 | 6188 ft | 199 kts | 220° |
| 2026-04-28 07:15 | -23.62945 | 133.67224 | 6090 ft | 195 kts | 216° |
| 2026-04-28 07:16 | -23.64057 | 133.66299 | 5937 ft | 206 kts | 202° |
| 2026-04-28 07:16 | -23.65389 | 133.65968 | 5793 ft | 193 kts | 178° |
| 2026-04-28 07:16 | -23.66666 | 133.66175 | 5710 ft | 176 kts | 157° |
| 2026-04-28 07:16 | -23.67712 | 133.66800 | 5642 ft | 171 kts | 140° |
| 2026-04-28 07:17 | -23.68445 | 133.67799 | 5636 ft | 173 kts | 121° |
| 2026-04-28 07:17 | -23.69065 | 133.68938 | 5641 ft | 176 kts | 120° |
| 2026-04-28 07:17 | -23.69697 | 133.70097 | 5641 ft | 179 kts | 120° |
| 2026-04-28 07:17 | -23.70340 | 133.71272 | 5646 ft | 182 kts | 120° |
| 2026-04-28 07:18 | -23.70999 | 133.72465 | 5567 ft | 187 kts | 121° |
| 2026-04-28 07:18 | -23.71695 | 133.73703 | 5303 ft | 193 kts | 120° |
| 2026-04-28 07:18 | -23.72413 | 133.74939 | 5091 ft | 192 kts | 121° |
| 2026-04-28 07:18 | -23.73079 | 133.76182 | 4925 ft | 188 kts | 117° |
| 2026-04-28 07:19 | -23.73669 | 133.77452 | 4800 ft | 184 kts | 116° |
| 2026-04-28 07:19 | -23.74257 | 133.78609 | 4589 ft | 166 kts | 120° |
| 2026-04-28 07:19 | -23.74817 | 133.79673 | 4289 ft | 158 kts | 121° |
| 2026-04-28 07:19 | -23.75419 | 133.80676 | 4075 ft | 159 kts | 123° |
| 2026-04-28 07:20 | -23.75981 | 133.81727 | 3786 ft | 159 kts | 118° |
| 2026-04-28 07:20 | -23.76507 | 133.82677 | 3544 ft | 137 kts | 123° |
| 2026-04-28 07:20 | -23.77008 | 133.83527 | 3268 ft | 130 kts | 121° |
| 2026-04-28 07:20 | -23.77452 | 133.84382 | 2952 ft | 131 kts | 117° |
| 2026-04-28 07:21 | -23.77915 | 133.85205 | 2690 ft | 126 kts | 121° |
| 2026-04-28 07:21 | -23.78367 | 133.86029 | 2504 ft | 126 kts | 118° |
| 2026-04-28 07:21 | -23.78806 | 133.86858 | 2381 ft | 125 kts | 117° |
| 2026-04-28 07:22 | -23.79648 | 133.88481 | 2001 ft | 122 kts | 117° |
| 2026-04-28 07:22 | -23.80074 | 133.89276 | 1830 ft | 120 kts | 115° |
| 2026-04-28 07:22 | -23.80438 | 133.89961 | 1786 ft | 60 kts | 122° |
| 2026-04-28 07:22 | -23.80533 | 133.90146 | 1785 ft | 22 kts | 116° |
| 2026-04-28 07:23 | -23.80584 | 133.90255 | 1785 ft | 0 kts | 122° |
| 2026-04-28 07:23 | -23.80599 | 133.90285 | 1784 ft | 12 kts | 105° |
| 2026-04-28 07:23 | -23.80546 | 133.90347 | 1786 ft | 13 kts | 28° |
| 2026-04-28 07:23 | -23.80464 | 133.90400 | 1787 ft | 15 kts | 31° |
| 2026-04-28 07:24 | -23.80409 | 133.90437 | 1787 ft | 9 kts | 51° |
| 2026-04-28 07:24 | -23.80400 | 133.90489 | 1787 ft | 0 kts | 122° |